SBPV

Details ICAO SBPV (PVH)
Name Governador Jorge Teixeira De Oliveira
Region Brazil
Timezone America/Porto_Velho (UTC-4.0)
Plans Departing 48
Arriving 45
Stats Elevation 290 ft / 88 m (AMSL)
Location -8.709293° -63.902279°
Runways 1
Magnetic Variation 12.889° W
Sunrise 2017-12-10 09:51:25 UTC / 2017-12-10 05:51:25 Local
Sunset 2017-12-10 22:28:30 UTC / 2017-12-10 18:28:30 Local
Advertisement - Login to hide

Runways

ID Width Length Bearing (true) Bearing (mag) Surface Threshold Offset Overrun Length
01 148 ft / 45 m 7,919 ft / 2,414 m 356.64° 9.53° Asphalt 0 ft / 0 m 200 ft / 61 m
19 148 ft / 45 m 7,919 ft / 2,414 m 176.64° 189.53° Asphalt 0 ft / 0 m 200 ft / 61 m

Approach Navaids

Runway Type Ident Frequency Range Bearing (true) Bearing (mag) Slope Elevation
19 Localiser IPV 109.30 MHz 18 nm / 33 km 179.71° 192.59° - 290 ft / 88 m (AMSL)
19 Glidescope IPV 109.30 MHz 10 nm / 19 km 176.64° 189.53° 3.00° 290 ft / 88 m (AMSL)

Map

Weather


0- 5 10 15 20 25 30 35+ Temperature / ° C

Clouds and Precipitation
Forecast for 2017-12-11 06:00 UTC. Updated an hour ago

Ground ~20,000 ft ~40,000 ft Winds

METAR

SBPV 110200Z 36003KT 9999 -RA BKN004 FEW030TCU OVC070 23/22 Q1008

TAF

Not found

Frequencies

Tower 118.70 MHz TWR
Approach 119.10 MHz APP
Warning: Do not use this data for real-world aviation or navigation. No guarantee of current accuracy is given.